Time;durP1;ratioP1;P1;durP2;ratioP2;P2;SDS_P1;SDS_P2;PMS_P1;PMS_P2;Temp;Humidity;BMP_temperature;BMP_pressure;BME280_temperature;BME280_humidity;BME280_pressure;Samples;Min_cycle;Max_cycle;Signal;HPM_P1;HPM_P2
2023/09/10 00:01:45;;;;;;;11.43;9.15;;;19.90;99.90;;;;;;5024093;28;20232;-36
2023/09/10 00:04:11;;;;;;;12.82;9.60;;;19.80;99.90;;;;;;4996889;28;20299;-34
2023/09/10 00:06:37;;;;;;;11.02;9.63;;;19.80;99.90;;;;;;5016216;28;20207;-37
2023/09/10 00:09:03;;;;;;;13.32;10.15;;;19.80;99.90;;;;;;5013844;28;20235;-35
2023/09/10 00:11:29;;;;;;;14.23;10.93;;;19.70;99.90;;;;;;5006491;28;20203;-35
2023/09/10 00:13:55;;;;;;;11.73;9.40;;;19.70;99.90;;;;;;5007100;28;20205;-37
2023/09/10 00:16:20;;;;;;;10.43;9.32;;;19.70;99.90;;;;;;5023966;28;20213;-36
2023/09/10 00:18:46;;;;;;;13.88;10.13;;;19.70;99.90;;;;;;5008237;28;20183;-34
2023/09/10 00:21:13;;;;;;;12.02;9.93;;;19.80;99.90;;;;;;5017011;28;20227;-36
2023/09/10 00:23:38;;;;;;;11.77;9.98;;;19.70;99.90;;;;;;5001806;28;20204;-34
2023/09/10 00:26:04;;;;;;;13.98;10.00;;;19.70;99.90;;;;;;5011947;28;20213;-38
2023/09/10 00:28:30;;;;;;;11.55;10.13;;;19.60;99.90;;;;;;5003203;28;20180;-35
2023/09/10 00:30:56;;;;;;;12.05;10.23;;;19.60;99.90;;;;;;5008282;28;20250;-37
2023/09/10 00:33:22;;;;;;;11.55;10.15;;;19.60;99.90;;;;;;4997315;28;20190;-37
2023/09/10 00:35:47;;;;;;;13.15;10.95;;;19.60;99.90;;;;;;5004840;28;20184;-38
2023/09/10 00:38:14;;;;;;;10.82;9.60;;;19.50;99.90;;;;;;5004448;28;20182;-37
2023/09/10 00:40:40;;;;;;;12.35;10.40;;;19.60;99.90;;;;;;5023823;28;20203;-32
2023/09/10 00:43:06;;;;;;;10.85;9.55;;;19.50;99.90;;;;;;5013224;28;20185;-37
2023/09/10 00:45:35;;;;;;;10.93;9.77;;;19.50;99.90;;;;;;4995930;28;20245;-38
2023/09/10 00:48:02;;;;;;;11.50;10.27;;;19.50;99.90;;;;;;5009698;28;20207;-37
2023/09/10 00:50:28;;;;;;;12.98;11.10;;;19.40;99.90;;;;;;5017540;28;20630;-37
2023/09/10 00:52:58;;;;;;;13.30;10.52;;;19.40;99.90;;;;;;4994801;28;20176;-36
2023/09/10 00:55:26;;;;;;;11.82;9.82;;;19.30;99.90;;;;;;5011524;28;20209;-36
2023/09/10 00:57:52;;;;;;;11.82;10.45;;;19.20;99.90;;;;;;5013926;28;20176;-35
2023/09/10 01:00:20;;;;;;;13.20;10.48;;;19.20;99.90;;;;;;5005849;28;20214;-34
2023/09/10 01:02:48;;;;;;;12.55;10.40;;;19.20;99.90;;;;;;4997316;28;20191;-38
2023/09/10 01:05:16;;;;;;;12.95;10.23;;;19.20;99.90;;;;;;5003312;28;20206;-37
2023/09/10 01:07:41;;;;;;;12.93;10.57;;;19.20;99.90;;;;;;4997912;28;20195;-33
2023/09/10 01:10:08;;;;;;;11.38;10.07;;;19.20;99.90;;;;;;5008052;28;20175;-37
2023/09/10 01:12:54;;;;;;;12.90;10.23;;;19.20;99.90;;;;;;5004813;28;20180;-36
2023/09/10 01:15:31;;;;;;;12.65;10.40;;;19.10;99.90;;;;;;5004578;28;20186;-36
2023/09/10 01:18:00;;;;;;;13.00;10.93;;;19.10;99.90;;;;;;4994565;28;20195;-35
2023/09/10 01:20:32;;;;;;;11.40;10.30;;;19.10;99.90;;;;;;5008597;28;20207;-38
2023/09/10 01:23:04;;;;;;;13.45;11.30;;;18.90;99.90;;;;;;5035066;22;20249;-87
2023/09/10 01:25:34;;;;;;;12.80;10.43;;;18.90;99.90;;;;;;5032722;28;20210;-87
2023/09/10 01:28:03;;;;;;;14.00;10.65;;;18.80;99.90;;;;;;5032091;28;20202;-87
2023/09/10 01:30:32;;;;;;;18.75;11.02;;;18.80;99.90;;;;;;5016450;28;20213;-87
2023/09/10 01:33:10;;;;;;;14.68;10.18;;;18.80;99.90;;;;;;5032298;28;20217;-87
2023/09/10 01:35:50;;;;;;;12.07;10.45;;;18.90;99.90;;;;;;5016417;28;20210;-87
2023/09/10 01:38:19;;;;;;;12.35;10.73;;;18.90;99.90;;;;;;5025058;28;20217;-87
2023/09/10 01:40:59;;;;;;;13.35;11.02;;;18.90;99.90;;;;;;5015916;28;20179;-87
2023/09/10 01:43:26;;;;;;;12.20;10.48;;;18.90;99.90;;;;;;5009432;28;20186;-88
2023/09/10 01:45:52;;;;;;;13.93;11.40;;;18.90;99.90;;;;;;5015908;28;20235;-87
2023/09/10 01:48:18;;;;;;;13.45;10.52;;;18.80;99.90;;;;;;5032314;28;20234;-87
2023/09/10 01:50:44;;;;;;;13.70;10.27;;;18.80;99.90;;;;;;5015954;28;20226;-87
2023/09/10 01:53:10;;;;;;;12.90;10.30;;;18.70;99.90;;;;;;5032038;28;20187;-87
2023/09/10 01:55:35;;;;;;;11.63;10.43;;;18.60;99.90;;;;;;5015663;28;20229;-87
2023/09/10 01:58:02;;;;;;;10.98;9.95;;;18.70;99.90;;;;;;5015857;28;20205;-87
2023/09/10 02:00:28;;;;;;;15.68;10.48;;;18.80;99.90;;;;;;5032256;28;20182;-86
2023/09/10 02:02:53;;;;;;;12.45;10.63;;;18.80;99.90;;;;;;5031751;28;20201;-86
2023/09/10 02:05:19;;;;;;;12.13;10.68;;;18.70;99.90;;;;;;5032347;28;20205;-86
2023/09/10 02:07:45;;;;;;;12.93;11.13;;;18.60;99.90;;;;;;5031831;28;20201;-86
2023/09/10 02:10:11;;;;;;;12.85;11.55;;;18.70;99.90;;;;;;5031564;28;20210;-87
2023/09/10 02:12:37;;;;;;;13.90;11.25;;;18.80;99.90;;;;;;5015643;28;20273;-87
2023/09/10 02:15:06;;;;;;;12.90;11.60;;;18.70;99.90;;;;;;5015744;28;20209;-87
2023/09/10 02:17:55;;;;;;;13.75;11.52;;;18.70;99.90;;;;;;5014233;28;20207;-87
2023/09/10 02:20:22;;;;;;;15.18;12.05;;;18.70;99.90;;;;;;5030681;28;20255;-87
2023/09/10 02:22:48;;;;;;;18.38;12.32;;;18.70;99.90;;;;;;5039196;28;20194;-88
2023/09/10 02:25:14;;;;;;;15.73;12.13;;;18.70;99.90;;;;;;5015207;28;20225;-87
2023/09/10 02:27:40;;;;;;;13.43;11.52;;;18.60;99.90;;;;;;5014536;28;20301;-87
2023/09/10 02:30:10;;;;;;;14.45;11.63;;;18.60;99.90;;;;;;5015007;28;20178;-86
2023/09/10 02:32:36;;;;;;;13.68;12.07;;;18.60;99.90;;;;;;5031380;28;20179;-87
2023/09/10 02:35:03;;;;;;;15.85;12.88;;;18.60;99.90;;;;;;5031288;28;20182;-87
2023/09/10 02:37:30;;;;;;;13.52;11.40;;;18.60;99.90;;;;;;5032447;28;20207;-87
2023/09/10 02:39:56;;;;;;;13.38;10.90;;;18.50;99.90;;;;;;5031279;28;20279;-87
2023/09/10 02:42:22;;;;;;;12.93;10.82;;;18.50;99.90;;;;;;5014645;28;20325;-87
2023/09/10 02:44:47;;;;;;;13.32;11.93;;;18.40;99.90;;;;;;5014967;28;20205;-87
2023/09/10 02:47:13;;;;;;;13.60;10.57;;;18.40;99.90;;;;;;5016246;28;20198;-87
2023/09/10 02:49:39;;;;;;;13.38;11.20;;;18.30;99.90;;;;;;5031707;28;20190;-87
2023/09/10 02:52:05;;;;;;;15.80;11.40;;;18.30;99.90;;;;;;5031275;28;20174;-87
2023/09/10 02:54:33;;;;;;;12.70;11.35;;;18.30;99.90;;;;;;5031506;28;20179;-87
2023/09/10 02:56:59;;;;;;;13.30;10.77;;;18.30;99.90;;;;;;5031201;28;20214;-88
2023/09/10 02:59:26;;;;;;;12.88;11.57;;;18.30;99.90;;;;;;5031509;28;20217;-87
2023/09/10 03:01:52;;;;;;;12.32;11.05;;;18.30;99.90;;;;;;5030965;28;20191;-87
2023/09/10 03:04:19;;;;;;;15.02;12.05;;;18.30;99.90;;;;;;5023429;28;20210;-87
2023/09/10 03:06:46;;;;;;;13.52;11.70;;;18.20;99.90;;;;;;5031071;28;20186;-87
2023/09/10 03:09:14;;;;;;;14.43;11.18;;;18.20;99.90;;;;;;5031364;28;20218;-87
2023/09/10 03:11:41;;;;;;;12.15;10.82;;;18.10;99.90;;;;;;5030937;28;20265;-87
2023/09/10 03:14:08;;;;;;;11.85;10.48;;;18.10;99.90;;;;;;5031269;28;20194;-86
2023/09/10 03:16:35;;;;;;;13.55;12.05;;;18.10;99.90;;;;;;5014289;28;20191;-87
2023/09/10 03:19:03;;;;;;;12.95;11.63;;;18.10;99.90;;;;;;5031301;28;20182;-86
2023/09/10 03:21:29;;;;;;;12.50;11.32;;;18.10;99.90;;;;;;5035399;28;20187;-87
2023/09/10 03:23:57;;;;;;;13.20;11.85;;;18.10;99.90;;;;;;5034282;28;20216;-87
2023/09/10 03:26:39;;;;;;;13.15;11.00;;;18.10;99.90;;;;;;5051340;28;20182;-87
2023/09/10 03:29:05;;;;;;;13.48;10.95;;;18.10;99.90;;;;;;5017956;28;20182;-87
2023/09/10 03:31:36;;;;;;;12.35;10.55;;;18.10;99.90;;;;;;5014824;28;20182;-88
2023/09/10 03:34:03;;;;;;;12.35;10.93;;;18.00;99.90;;;;;;5040783;28;20179;-87
2023/09/10 03:36:29;;;;;;;13.60;10.77;;;18.00;99.90;;;;;;5018431;28;20276;-86
2023/09/10 03:38:54;;;;;;;11.63;10.25;;;17.90;99.90;;;;;;5018456;28;20209;-86
2023/09/10 03:41:20;;;;;;;12.68;11.38;;;17.90;99.90;;;;;;5015146;28;20186;-87
2023/09/10 03:43:46;;;;;;;12.63;11.32;;;17.90;99.90;;;;;;5058767;28;20194;-87
2023/09/10 03:46:12;;;;;;;13.43;11.75;;;17.90;99.90;;;;;;5052365;28;20183;-87
2023/09/10 03:48:38;;;;;;;11.52;10.43;;;17.90;99.90;;;;;;5034468;28;20194;-87
2023/09/10 03:51:04;;;;;;;12.90;10.00;;;17.90;99.90;;;;;;5018148;28;20179;-86
2023/09/10 03:53:30;;;;;;;12.07;10.88;;;17.90;99.90;;;;;;5018191;28;20182;-87
2023/09/10 03:56:14;;;;;;;11.60;10.40;;;17.90;99.90;;;;;;5034565;28;20275;-86
2023/09/10 03:58:40;;;;;;;13.13;10.65;;;17.90;99.90;;;;;;5033976;28;20230;-86
2023/09/10 04:01:05;;;;;;;12.70;10.45;;;17.90;99.90;;;;;;5022718;28;20212;-86
2023/09/10 04:03:31;;;;;;;12.38;11.13;;;17.90;99.90;;;;;;5024007;28;20232;-86
2023/09/10 04:05:57;;;;;;;12.40;11.20;;;17.80;99.90;;;;;;5033787;28;20190;-85
2023/09/10 04:08:23;;;;;;;14.32;11.98;;;17.80;99.90;;;;;;5018046;28;20202;-86
2023/09/10 04:10:49;;;;;;;14.80;11.98;;;17.70;99.90;;;;;;5034617;28;20183;-85
2023/09/10 04:13:15;;;;;;;13.57;11.38;;;17.70;99.90;;;;;;5033839;28;20183;-86
2023/09/10 04:15:40;;;;;;;11.82;10.60;;;17.60;99.90;;;;;;5017467;28;20190;-85
2023/09/10 04:18:07;;;;;;;13.70;11.30;;;17.60;99.90;;;;;;5033493;28;20226;-84
2023/09/10 04:20:33;;;;;;;12.68;11.48;;;17.60;99.90;;;;;;5033602;28;20240;-86
2023/09/10 04:22:58;;;;;;;13.02;11.20;;;17.60;99.90;;;;;;5033155;28;20194;-87
2023/09/10 04:25:24;;;;;;;16.88;13.10;;;17.50;99.90;;;;;;5033636;28;20210;-87
2023/09/10 04:27:50;;;;;;;13.25;11.73;;;17.40;99.90;;;;;;5033341;28;20226;-87
2023/09/10 04:30:16;;;;;;;13.50;12.05;;;17.30;99.90;;;;;;5017036;28;20182;-87
2023/09/10 04:32:42;;;;;;;14.93;12.63;;;17.30;99.90;;;;;;5021325;28;20246;-87
2023/09/10 04:35:09;;;;;;;15.45;11.70;;;17.30;99.90;;;;;;5034596;28;20183;-87
2023/09/10 04:37:35;;;;;;;13.93;11.45;;;17.30;99.90;;;;;;5032932;28;20203;-87
2023/09/10 04:40:06;;;;;;;14.18;11.63;;;17.20;99.90;;;;;;5033937;28;20205;-87
2023/09/10 04:42:35;;;;;;;14.02;11.77;;;17.20;99.90;;;;;;5019390;28;20179;-87
2023/09/10 04:45:06;;;;;;;14.45;11.45;;;17.20;99.90;;;;;;5017216;28;20194;-87
2023/09/10 04:47:41;;;;;;;13.98;11.88;;;17.20;99.90;;;;;;5016857;28;20233;-87
2023/09/10 04:50:07;;;;;;;12.77;11.57;;;17.30;99.90;;;;;;5016562;28;20171;-86
2023/09/10 04:52:41;;;;;;;14.25;12.52;;;17.20;99.90;;;;;;5029982;28;20221;-87
2023/09/10 04:55:08;;;;;;;12.73;11.48;;;17.30;99.90;;;;;;5032246;28;20212;-87
2023/09/10 04:57:52;;;;;;;17.48;11.95;;;17.30;99.90;;;;;;5026060;28;20249;-87
2023/09/10 05:00:19;;;;;;;11.98;10.52;;;17.30;99.90;;;;;;5031494;28;20195;-87
2023/09/10 05:02:47;;;;;;;14.15;12.15;;;17.30;99.90;;;;;;5022572;28;20199;-87
2023/09/10 05:05:28;;;;;;;13.02;11.52;;;17.30;99.90;;;;;;5032615;28;20200;-87
2023/09/10 05:07:55;;;;;;;14.73;11.90;;;17.30;99.90;;;;;;5033319;28;20199;-87
2023/09/10 05:10:21;;;;;;;13.90;12.20;;;17.30;99.90;;;;;;5032800;28;20171;-86
2023/09/10 05:12:52;;;;;;;13.13;11.82;;;17.40;99.90;;;;;;5027518;28;20299;-86
2023/09/10 05:15:17;;;;;;;13.50;11.95;;;17.50;99.90;;;;;;5025132;28;20186;-87
2023/09/10 05:17:43;;;;;;;14.70;11.68;;;17.60;99.90;;;;;;5032591;28;20202;-87
2023/09/10 05:20:10;;;;;;;15.52;12.30;;;17.50;99.90;;;;;;5026009;28;20246;-87
2023/09/10 05:22:36;;;;;;;12.82;11.38;;;17.60;99.90;;;;;;5032547;28;20190;-87
2023/09/10 05:25:03;;;;;;;13.45;12.00;;;17.60;99.90;;;;;;5037827;28;20267;-87
2023/09/10 05:27:31;;;;;;;13.23;11.77;;;17.70;99.90;;;;;;5031517;28;20199;-87
2023/09/10 05:29:58;;;;;;;13.73;11.63;;;17.60;99.90;;;;;;5031849;28;20178;-87
2023/09/10 05:32:24;;;;;;;14.75;12.27;;;17.70;99.90;;;;;;5022057;28;20182;-87
2023/09/10 05:35:12;;;;;;;14.18;11.23;;;17.60;99.90;;;;;;5034164;28;20182;-87
2023/09/10 05:37:39;;;;;;;13.30;10.82;;;17.70;99.90;;;;;;5041379;28;20206;-87
2023/09/10 05:40:05;;;;;;;13.93;11.82;;;17.70;99.90;;;;;;5046246;28;20182;-87
2023/09/10 05:42:32;;;;;;;12.93;11.45;;;17.70;99.90;;;;;;5030399;28;20191;-87
2023/09/10 05:44:59;;;;;;;13.73;11.63;;;17.80;99.90;;;;;;5038832;28;20226;-87
2023/09/10 05:47:27;;;;;;;13.02;11.68;;;17.80;99.90;;;;;;5042662;28;20202;-87
2023/09/10 05:49:53;;;;;;;22.60;16.88;;;17.80;99.90;;;;;;5031850;28;20662;-87
2023/09/10 05:52:19;;;;;;;14.75;13.25;;;17.90;99.90;;;;;;5018515;28;20186;-86
2023/09/10 05:54:46;;;;;;;12.30;11.02;;;17.90;99.90;;;;;;5019180;28;20189;-86
2023/09/10 05:57:11;;;;;;;13.30;11.45;;;18.00;99.90;;;;;;5014618;28;20210;-86
2023/09/10 05:59:37;;;;;;;15.10;12.30;;;18.00;99.90;;;;;;5032864;28;20198;-87
2023/09/10 06:02:04;;;;;;;15.88;13.15;;;18.10;99.90;;;;;;5031974;28;20260;-87
2023/09/10 06:04:32;;;;;;;14.77;12.85;;;18.10;99.90;;;;;;5032199;28;20226;-87
2023/09/10 06:07:04;;;;;;;14.40;11.85;;;18.20;99.90;;;;;;5031595;28;20194;-86
2023/09/10 06:09:32;;;;;;;12.10;10.82;;;18.30;99.90;;;;;;5019919;28;20179;-87
2023/09/10 06:12:00;;;;;;;12.48;11.18;;;18.40;99.90;;;;;;5023038;28;20190;-87
2023/09/10 06:14:26;;;;;;;15.82;11.23;;;18.40;99.90;;;;;;5031808;28;20266;-87
2023/09/10 06:16:51;;;;;;;13.18;11.65;;;18.40;99.90;;;;;;5031583;28;20261;-87
2023/09/10 06:19:18;;;;;;;13.57;11.75;;;18.50;99.90;;;;;;5015626;28;20256;-87
2023/09/10 06:21:43;;;;;;;15.30;11.73;;;18.60;99.90;;;;;;5019446;28;20178;-87
2023/09/10 06:24:09;;;;;;;14.90;11.63;;;18.70;99.90;;;;;;5015027;28;20206;-87
2023/09/10 06:26:35;;;;;;;13.02;11.75;;;18.70;99.90;;;;;;5021969;28;20178;-87
2023/09/10 06:29:01;;;;;;;16.40;13.57;;;18.80;99.90;;;;;;5018236;28;21114;-87
2023/09/10 06:31:27;;;;;;;18.52;16.27;;;18.90;99.90;;;;;;5018403;28;20239;-87
2023/09/10 06:33:56;;;;;;;68.25;53.22;;;19.00;99.90;;;;;;5023903;28;20178;-87
2023/09/10 06:36:25;;;;;;;30.52;25.55;;;19.10;99.90;;;;;;5037071;28;20186;-87
2023/09/10 06:39:09;;;;;;;17.00;13.35;;;19.10;99.90;;;;;;5033524;28;20202;-85
2023/09/10 06:42:34;;;;;;;14.15;12.35;;;19.20;99.90;;;;;;5027461;28;20193;-85
2023/09/10 06:45:44;;;;;;;14.68;12.45;;;19.40;99.90;;;;;;5034529;28;20233;-86
2023/09/10 07:04:13;;;;;;;15.15;11.68;;;19.90;99.90;;;;;;5030994;28;20166;-85
2023/09/10 07:19:02;;;;;;;17.17;11.35;;;20.20;99.90;;;;;;4987341;28;20229;-87
2023/09/10 07:29:24;;;;;;;18.88;11.60;;;20.70;99.90;;;;;;4931792;28;20189;-88
2023/09/10 07:35:53;;;;;;;13.02;10.32;;;20.90;99.90;;;;;;4894994;29;20225;-88
2023/09/10 07:38:20;;;;;;;12.38;11.02;;;21.00;99.90;;;;;;4931204;28;20221;-88
2023/09/10 07:40:52;;;;;;;13.95;11.02;;;21.10;99.90;;;;;;4978895;28;20230;-88
2023/09/10 07:43:19;;;;;;;14.50;11.30;;;21.30;99.90;;;;;;5029475;28;20201;-88
2023/09/10 07:45:52;;;;;;;13.48;10.65;;;21.40;99.90;;;;;;5014516;28;20207;-89
2023/09/10 07:48:44;;;;;;;11.88;10.68;;;21.50;99.90;;;;;;5031111;28;20198;-89
2023/09/10 07:51:43;;;;;;;12.75;10.55;;;21.60;99.90;;;;;;5037622;28;20210;-88
2023/09/10 07:54:35;;;;;;;12.13;10.80;;;21.80;99.90;;;;;;5050178;28;20190;-90
2023/09/10 07:57:30;;;;;;;12.05;10.65;;;21.90;99.90;;;;;;5039467;28;20203;-88
2023/09/10 08:00:21;;;;;;;12.10;9.63;;;22.10;99.90;;;;;;5029155;28;20191;-89
2023/09/10 08:02:53;;;;;;;11.93;9.93;;;22.20;99.90;;;;;;5013772;28;20187;-88
2023/09/10 08:05:36;;;;;;;12.63;11.27;;;22.30;99.90;;;;;;5030560;28;20203;-89
2023/09/10 08:08:13;;;;;;;10.25;9.18;;;22.40;99.90;;;;;;5031479;28;20225;-88
2023/09/10 08:10:44;;;;;;;12.00;9.48;;;22.60;99.90;;;;;;5033799;28;20182;-88
2023/09/10 08:13:28;;;;;;;11.60;10.05;;;22.70;99.90;;;;;;5042650;28;20177;-88
2023/09/10 08:16:22;;;;;;;12.50;10.52;;;22.90;99.90;;;;;;5035118;28;20285;-87
2023/09/10 08:18:58;;;;;;;10.77;8.75;;;23.00;99.90;;;;;;5034748;28;20213;-88
2023/09/10 08:21:43;;;;;;;14.32;10.70;;;23.10;99.90;;;;;;5033911;28;20236;-89
2023/09/10 08:24:22;;;;;;;;;;;;;;;;;;;;;
2023/09/10 08:27:25;;;;;;;10.60;9.15;;;23.40;99.90;;;;;;4993002;28;20307;-89
2023/09/10 08:30:09;;;;;;;10.23;9.20;;;23.60;99.90;;;;;;5033296;28;20193;-88
2023/09/10 08:32:45;;;;;;;14.80;9.38;;;23.70;99.90;;;;;;5027253;28;20186;-88
2023/09/10 08:36:04;;;;;;;13.93;9.65;;;23.80;99.90;;;;;;5034805;28;20190;-88
2023/09/10 08:39:03;;;;;;;12.07;9.40;;;24.00;99.90;;;;;;5031713;28;20229;-88
2023/09/10 08:42:17;;;;;;;14.02;9.60;;;24.20;99.90;;;;;;5034260;28;20229;-88
2023/09/10 08:44:49;;;;;;;9.98;8.63;;;24.40;99.90;;;;;;4982918;28;20223;-88
2023/09/10 08:51:25;;;;;;;9.20;8.20;;;24.70;99.90;;;;;;5034922;28;20193;-89
2023/09/10 08:54:08;;;;;;;9.52;8.52;;;25.00;99.90;;;;;;5035121;28;20213;-88
2023/09/10 08:56:51;;;;;;;10.85;8.23;;;25.20;99.90;;;;;;5050740;28;20221;-88
2023/09/10 08:59:29;;;;;;;10.15;8.27;;;25.40;99.90;;;;;;5033939;28;20299;-89
2023/09/10 09:02:05;;;;;;;11.00;8.55;;;25.50;99.90;;;;;;4998159;28;20167;-88
2023/09/10 09:04:34;;;;;;;11.27;8.57;;;25.60;99.90;;;;;;5013661;28;20210;-88
2023/09/10 09:07:02;;;;;;;10.32;8.98;;;25.80;99.90;;;;;;5013891;28;20278;-89
2023/09/10 09:09:34;;;;;;;8.60;7.78;;;25.90;99.90;;;;;;4997447;28;20298;-90
2023/09/10 09:12:16;;;;;;;10.75;9.60;;;26.00;99.90;;;;;;5004652;28;20174;-89
2023/09/10 09:14:46;;;;;;;9.50;8.60;;;26.00;99.90;;;;;;5014135;28;20183;-88
2023/09/10 09:17:16;;;;;;;9.55;8.55;;;26.10;99.90;;;;;;5013705;28;20253;-90
2023/09/10 09:19:52;;;;;;;10.48;8.73;;;26.20;99.90;;;;;;5006173;28;20233;-88
2023/09/10 09:22:28;;;;;;;10.63;8.38;;;26.30;99.90;;;;;;5005195;28;20206;-89
2023/09/10 09:25:19;;;;;;;9.80;8.05;;;26.40;99.90;;;;;;4997313;28;20727;-88
2023/09/10 09:27:56;;;;;;;8.50;7.78;;;26.60;99.90;;;;;;5013364;28;20287;-88
2023/09/10 09:30:23;;;;;;;9.60;8.32;;;26.70;99.90;;;;;;5013701;28;20225;-90
2023/09/10 09:32:50;;;;;;;7.97;7.15;;;26.80;99.90;;;;;;5019066;28;20180;-88
2023/09/10 09:35:23;;;;;;;10.65;7.43;;;26.80;99.90;;;;;;5012715;28;20187;-87
2023/09/10 09:38:16;;;;;;;7.25;6.65;;;26.90;99.90;;;;;;5013377;28;20202;-88
2023/09/10 09:40:52;;;;;;;8.57;7.68;;;27.10;99.90;;;;;;5013207;28;20206;-87
2023/09/10 09:43:23;;;;;;;11.45;8.43;;;27.20;99.90;;;;;;5001691;28;20195;-88
2023/09/10 09:45:55;;;;;;;8.68;7.68;;;27.40;99.90;;;;;;5013480;28;20199;-87
2023/09/10 09:48:54;;;;;;;8.55;7.20;;;27.60;99.90;;;;;;5009058;28;20253;-88
2023/09/10 09:51:30;;;;;;;10.40;7.22;;;27.60;99.90;;;;;;5010147;28;20208;-88
2023/09/10 09:54:02;;;;;;;9.70;7.35;;;27.80;99.90;;;;;;5013549;28;20179;-89
2023/09/10 09:56:29;;;;;;;6.82;6.18;;;27.90;99.90;;;;;;5012329;28;20706;-88
2023/09/10 09:58:59;;;;;;;7.63;6.85;;;27.90;99.90;;;;;;5019093;28;20207;-88
2023/09/10 10:01:37;;;;;;;7.82;6.13;;;27.80;99.90;;;;;;4998140;28;20187;-88
2023/09/10 10:04:06;;;;;;;9.75;6.60;;;27.90;99.90;;;;;;5012799;28;20211;-88
2023/09/10 10:06:33;;;;;;;6.88;6.20;;;27.80;99.90;;;;;;5002535;28;20230;-89
2023/09/10 10:09:01;;;;;;;8.88;6.32;;;27.90;99.90;;;;;;5012879;28;20205;-89
2023/09/10 10:11:32;;;;;;;7.30;6.60;;;28.10;99.90;;;;;;5012196;28;20274;-89
2023/09/10 10:13:59;;;;;;;8.30;6.78;;;28.30;99.90;;;;;;5001365;28;20187;-90
2023/09/10 10:16:28;;;;;;;9.32;7.05;;;28.30;99.90;;;;;;5014972;28;20186;-89
2023/09/10 10:18:57;;;;;;;8.02;7.13;;;28.30;99.90;;;;;;5012467;28;20203;-89
2023/09/10 10:21:24;;;;;;;9.80;7.13;;;28.40;99.90;;;;;;5012534;28;20188;-89
2023/09/10 10:23:56;;;;;;;8.98;7.40;;;28.50;99.90;;;;;;5029160;28;20285;-88
2023/09/10 10:26:25;;;;;;;8.32;6.85;;;28.60;99.90;;;;;;5012480;28;20179;-89
2023/09/10 10:28:56;;;;;;;8.85;6.63;;;28.60;99.90;;;;;;5001780;28;20204;-88
2023/09/10 10:31:22;;;;;;;9.82;6.57;;;28.80;99.90;;;;;;5009106;28;20183;-89
2023/09/10 10:34:15;;;;;;;8.00;7.20;;;28.80;99.90;;;;;;5012785;28;20249;-89
2023/09/10 10:37:09;;;;;;;8.35;7.10;;;29.00;99.90;;;;;;5012765;28;20237;-90
2023/09/10 10:40:01;;;;;;;8.90;7.35;;;29.10;99.90;;;;;;5012871;28;20164;-89
2023/09/10 10:42:36;;;;;;;7.75;6.93;;;29.30;99.90;;;;;;5021405;28;20191;-88
2023/09/10 10:45:06;;;;;;;10.93;7.38;;;29.40;99.90;;;;;;5026154;28;20278;-88
2023/09/10 10:47:38;;;;;;;10.18;7.00;;;29.50;99.90;;;;;;4995434;28;20203;-88
2023/09/10 10:50:10;;;;;;;7.97;7.03;;;29.40;99.90;;;;;;4995982;28;20190;-89
2023/09/10 10:53:21;;;;;;;8.35;7.40;;;29.40;99.90;;;;;;5012364;28;20190;-89
2023/09/10 10:55:55;;;;;;;7.88;7.18;;;29.60;99.90;;;;;;4993747;28;20273;-89
2023/09/10 10:58:25;;;;;;;11.02;7.50;;;29.80;99.90;;;;;;5013027;28;20214;-88
2023/09/10 11:00:53;;;;;;;9.57;7.70;;;29.90;99.90;;;;;;5011981;28;20201;-88
2023/09/10 11:03:20;;;;;;;8.18;7.38;;;30.00;99.90;;;;;;5012078;28;20179;-88
2023/09/10 11:05:53;;;;;;;8.25;7.45;;;30.00;99.90;;;;;;5012045;28;20253;-89
2023/09/10 11:08:32;;;;;;;8.25;7.38;;;30.10;99.90;;;;;;5012177;28;20203;-89
2023/09/10 11:10:59;;;;;;;8.95;7.32;;;30.20;99.90;;;;;;4995628;28;20189;-88
2023/09/10 11:13:25;;;;;;;10.75;7.80;;;30.30;99.90;;;;;;4995800;28;20291;-88
2023/09/10 11:16:06;;;;;;;8.48;7.32;;;30.30;99.90;;;;;;4995944;28;20186;-88
2023/09/10 11:18:38;;;;;;;9.20;7.40;;;30.40;99.90;;;;;;5011781;28;20199;-88
2023/09/10 11:21:12;;;;;;;9.93;7.10;;;30.60;99.90;;;;;;5012109;28;20213;-88
2023/09/10 11:30:32;;;;;;;10.60;7.18;;;30.90;99.90;;;;;;5028358;28;20191;-88
2023/09/10 11:33:27;;;;;;;7.50;6.72;;;30.90;99.90;;;;;;4995694;28;20194;-89
2023/09/10 11:35:54;;;;;;;7.60;6.80;;;31.10;99.90;;;;;;5011528;28;20207;-88
2023/09/10 11:38:20;;;;;;;7.53;6.47;;;31.20;99.90;;;;;;5012103;28;20222;-88
2023/09/10 11:40:47;;;;;;;8.05;6.53;;;31.40;99.90;;;;;;5013094;28;20191;-88
2023/09/10 11:43:13;;;;;;;7.28;6.60;;;31.60;99.90;;;;;;5025847;28;20190;-91
2023/09/10 11:45:39;;;;;;;8.30;6.80;;;31.70;99.90;;;;;;5029180;28;20262;-88
2023/09/10 11:48:06;;;;;;;7.28;6.43;;;31.60;99.90;;;;;;5016267;28;20199;-88
2023/09/10 11:50:33;;;;;;;8.02;6.28;;;31.70;99.90;;;;;;5016212;28;20175;-88
2023/09/10 11:52:59;;;;;;;7.13;6.43;;;31.80;99.90;;;;;;5015359;28;20179;-88
2023/09/10 11:55:25;;;;;;;9.40;6.38;;;31.90;99.90;;;;;;4995431;28;20254;-88
2023/09/10 11:57:54;;;;;;;7.68;6.32;;;32.00;99.90;;;;;;5012138;28;20192;-89
2023/09/10 12:00:23;;;;;;;6.93;6.00;;;32.00;99.90;;;;;;5012111;28;20173;-89
2023/09/10 12:02:51;;;;;;;6.75;6.07;;;32.30;99.90;;;;;;5012231;28;20637;-88
2023/09/10 12:05:44;;;;;;;6.50;5.72;;;32.20;99.90;;;;;;5011481;28;20202;-89
2023/09/10 12:08:10;;;;;;;7.53;5.78;;;32.10;99.90;;;;;;4997202;28;20226;-88
2023/09/10 12:10:37;;;;;;;6.05;5.50;;;32.10;99.90;;;;;;4998195;28;20183;-88
2023/09/10 12:13:04;;;;;;;7.25;5.60;;;32.20;99.90;;;;;;5006455;28;20223;-89
2023/09/10 12:15:31;;;;;;;6.45;5.85;;;32.30;99.90;;;;;;5014289;28;20246;-89
2023/09/10 12:18:01;;;;;;;7.00;6.30;;;32.40;99.90;;;;;;5014610;28;20273;-89
2023/09/10 12:20:27;;;;;;;5.93;5.38;;;32.40;99.90;;;;;;5014727;28;20187;-89
2023/09/10 12:22:53;;;;;;;8.45;6.20;;;32.40;99.90;;;;;;5014756;28;20182;-89
2023/09/10 12:25:19;;;;;;;5.93;5.40;;;32.40;99.90;;;;;;4998567;28;20191;-89
2023/09/10 12:27:45;;;;;;;7.20;5.10;;;32.50;99.90;;;;;;5014370;28;20208;-89
2023/09/10 12:30:11;;;;;;;7.43;5.38;;;32.40;99.90;;;;;;5014491;28;20274;-89
2023/09/10 12:32:37;;;;;;;5.90;5.30;;;32.40;99.90;;;;;;4998022;28;20270;-89
2023/09/10 12:35:04;;;;;;;5.70;4.50;;;32.50;99.90;;;;;;5014165;28;20319;-90
2023/09/10 12:37:30;;;;;;;5.28;4.78;;;32.60;99.90;;;;;;5014021;28;20206;-89
2023/09/10 12:39:56;;;;;;;5.85;4.97;;;32.90;99.90;;;;;;5014512;28;20172;-89
2023/09/10 12:42:22;;;;;;;5.53;4.93;;;32.90;99.90;;;;;;5014002;28;20187;-89
2023/09/10 12:44:47;;;;;;;5.85;5.28;;;32.80;99.90;;;;;;5011935;28;20190;-89
2023/09/10 12:47:14;;;;;;;8.18;5.00;;;32.80;99.90;;;;;;5014621;28;20277;-88
2023/09/10 12:49:40;;;;;;;7.95;5.53;;;32.90;99.90;;;;;;4998064;28;20179;-89
2023/09/10 12:52:09;;;;;;;6.38;5.78;;;32.80;99.90;;;;;;5014265;28;20285;-89
2023/09/10 12:54:35;;;;;;;4.97;4.55;;;32.80;99.90;;;;;;5014503;28;20211;-88
2023/09/10 12:57:04;;;;;;;5.05;4.55;;;32.80;99.90;;;;;;4997633;28;20199;-89
2023/09/10 12:59:33;;;;;;;5.70;4.75;;;32.80;99.90;;;;;;5014444;28;20183;-89
2023/09/10 13:02:03;;;;;;;6.60;5.20;;;32.90;99.90;;;;;;5014477;28;20237;-90
2023/09/10 13:04:29;;;;;;;6.18;4.45;;;33.10;99.90;;;;;;5014056;28;20194;-90
2023/09/10 13:07:04;;;;;;;5.10;4.63;;;33.40;99.90;;;;;;5014120;28;20207;-90
2023/09/10 13:09:30;;;;;;;4.90;4.50;;;33.60;99.90;;;;;;4997302;28;20183;-89
2023/09/10 13:11:59;;;;;;;4.97;4.47;;;33.80;99.90;;;;;;4998449;28;20188;-88
2023/09/10 13:14:28;;;;;;;5.63;4.40;;;33.90;98.60;;;;;;5013916;28;20219;-88
2023/09/10 13:16:59;;;;;;;5.10;4.40;;;33.90;98.10;;;;;;5013990;28;20211;-90
2023/09/10 13:19:27;;;;;;;5.68;4.57;;;33.70;99.10;;;;;;4997300;28;20179;-88
2023/09/10 13:21:53;;;;;;;5.13;4.60;;;33.60;98.40;;;;;;4996870;28;20188;-90
2023/09/10 13:24:22;;;;;;;5.65;5.15;;;33.50;99.90;;;;;;4996977;28;20199;-89
2023/09/10 13:26:50;;;;;;;5.30;4.80;;;33.60;99.90;;;;;;4997640;28;20229;-88
2023/09/10 13:29:16;;;;;;;6.10;4.72;;;33.50;99.80;;;;;;4997404;28;20245;-89
2023/09/10 13:31:45;;;;;;;5.10;4.60;;;33.60;99.90;;;;;;4997509;28;20226;-88
2023/09/10 13:34:11;;;;;;;4.82;4.32;;;33.80;98.60;;;;;;5013363;28;20290;-90
2023/09/10 13:36:39;;;;;;;5.00;4.50;;;33.80;97.90;;;;;;5013227;28;20241;-89
2023/09/10 13:39:06;;;;;;;4.63;4.15;;;33.80;98.00;;;;;;5013520;28;20211;-90
2023/09/10 13:41:37;;;;;;;5.13;4.65;;;34.10;97.10;;;;;;4997837;28;20640;-89
2023/09/10 13:44:16;;;;;;;4.60;4.10;;;34.10;96.80;;;;;;4997256;28;20171;-88
2023/09/10 13:46:46;;;;;;;6.03;4.55;;;34.20;96.80;;;;;;4997772;28;20171;-89